Time;durP1;ratioP1;P1;durP2;ratioP2;P2;SDS_P1;SDS_P2;PMS_P1;PMS_P2;Temp;Humidity;BMP_temperature;BMP_pressure;BME280_temperature;BME280_humidity;BME280_pressure;Samples;Min_cycle;Max_cycle;Signal;HPM_P1;HPM_P2
2022/12/22 03:26:24;;;;;;;1.40;1.20;;;6.10;99.90;;;;;;5064402;28;20135;-79
2022/12/22 03:28:50;;;;;;;1.27;1.00;;;6.10;99.90;;;;;;5047158;28;20103;-79
2022/12/22 03:31:17;;;;;;;1.23;1.13;;;6.10;99.90;;;;;;5047481;28;20131;-80
2022/12/22 03:33:44;;;;;;;1.25;1.05;;;6.20;99.90;;;;;;5063889;28;20055;-80
2022/12/22 03:36:10;;;;;;;1.30;1.10;;;6.20;99.90;;;;;;5065285;28;20044;-80
2022/12/22 03:38:37;;;;;;;1.42;1.33;;;6.30;99.90;;;;;;5064703;28;20044;-79
2022/12/22 03:41:04;;;;;;;1.55;1.05;;;6.30;99.90;;;;;;5047098;28;20143;-79
2022/12/22 03:46:32;;;;;;;1.83;1.20;;;6.40;99.90;;;;;;5065260;28;20587;-79
2022/12/22 03:49:08;;;;;;;1.50;1.13;;;6.40;99.90;;;;;;5064323;28;20191;-79
2022/12/22 03:51:46;;;;;;;1.77;1.20;;;6.50;99.90;;;;;;5048270;28;20128;-79
2022/12/22 03:54:15;;;;;;;1.17;1.08;;;6.50;99.90;;;;;;5063642;28;20068;-80
2022/12/22 03:56:41;;;;;;;1.02;0.93;;;6.60;99.90;;;;;;5030980;28;20086;-79
2022/12/22 03:59:08;;;;;;;1.65;1.23;;;6.70;99.90;;;;;;5064651;28;20092;-80
2022/12/22 04:01:43;;;;;;;1.60;1.40;;;6.80;99.90;;;;;;5063771;28;20048;-79
2022/12/22 04:04:10;;;;;;;1.42;1.20;;;6.90;99.90;;;;;;5063957;28;20134;-80
2022/12/22 04:06:37;;;;;;;1.98;1.33;;;6.90;99.90;;;;;;5047114;28;20076;-79
2022/12/22 04:09:04;;;;;;;1.42;1.13;;;7.00;99.90;;;;;;5047317;28;20052;-80
2022/12/22 04:14:16;;;;;;;2.70;1.98;;;7.20;99.90;;;;;;5064566;28;20056;-79
2022/12/22 04:16:43;;;;;;;3.13;2.10;;;7.30;99.90;;;;;;5065217;28;20517;-80
2022/12/22 04:19:10;;;;;;;3.47;2.60;;;7.40;99.90;;;;;;5065270;28;20055;-80
2022/12/22 04:21:37;;;;;;;3.42;3.13;;;7.40;99.90;;;;;;5065188;28;20064;-79
2022/12/22 04:24:04;;;;;;;2.30;1.73;;;7.50;99.90;;;;;;5063552;28;20087;-80
2022/12/22 04:26:31;;;;;;;2.28;1.77;;;7.60;99.90;;;;;;5063437;28;20048;-80
2022/12/22 04:28:58;;;;;;;2.88;2.00;;;7.60;99.90;;;;;;5062591;28;20490;-79
2022/12/22 04:31:24;;;;;;;2.85;2.20;;;7.60;99.90;;;;;;5062408;28;20053;-80
2022/12/22 04:33:51;;;;;;;2.58;1.92;;;7.60;99.90;;;;;;5067067;28;20067;-79
2022/12/22 04:36:18;;;;;;;2.13;1.83;;;7.60;99.90;;;;;;5066707;28;20095;-80
2022/12/22 04:38:45;;;;;;;2.80;2.00;;;7.70;99.90;;;;;;5067256;28;20050;-80
2022/12/22 04:41:11;;;;;;;2.30;2.00;;;7.70;99.90;;;;;;5066922;28;20048;-80
2022/12/22 04:43:38;;;;;;;2.40;1.80;;;7.70;99.90;;;;;;5066516;28;20099;-80
2022/12/22 04:46:05;;;;;;;2.65;1.95;;;7.70;99.90;;;;;;5050409;28;20052;-78
2022/12/22 04:48:32;;;;;;;2.45;1.73;;;7.60;99.90;;;;;;5067327;28;20048;-80
2022/12/22 04:50:59;;;;;;;2.90;1.98;;;7.50;99.90;;;;;;5050175;28;20094;-81
2022/12/22 04:53:27;;;;;;;2.45;1.70;;;7.50;99.90;;;;;;5048438;28;20091;-79
2022/12/22 04:55:55;;;;;;;2.42;1.60;;;7.50;99.90;;;;;;5065107;28;20056;-80
2022/12/22 04:58:22;;;;;;;1.60;1.33;;;7.50;99.90;;;;;;5066683;28;20384;-81
2022/12/22 05:00:48;;;;;;;2.22;1.63;;;7.50;99.90;;;;;;5066892;28;20048;-81
2022/12/22 05:03:15;;;;;;;2.80;1.85;;;7.50;99.90;;;;;;5050122;28;20044;-79
2022/12/22 05:05:42;;;;;;;2.10;1.70;;;7.60;99.90;;;;;;5034097;28;20045;-79
2022/12/22 05:08:09;;;;;;;2.20;1.48;;;7.60;99.90;;;;;;5050036;28;20055;-79
2022/12/22 05:10:35;;;;;;;3.15;1.92;;;7.60;99.90;;;;;;5066717;28;20123;-78
2022/12/22 05:13:02;;;;;;;3.08;2.25;;;7.60;99.90;;;;;;5066235;28;20068;-79
2022/12/22 05:15:30;;;;;;;2.50;2.28;;;7.60;99.90;;;;;;5067717;28;20593;-78
2022/12/22 05:17:57;;;;;;;2.22;1.58;;;7.60;99.90;;;;;;5049880;28;20090;-79
2022/12/22 05:20:24;;;;;;;2.03;1.40;;;7.60;99.90;;;;;;5068069;28;20049;-79
2022/12/22 05:22:51;;;;;;;2.00;1.40;;;7.60;99.90;;;;;;5049800;28;20147;-79
2022/12/22 05:25:21;;;;;;;2.25;1.90;;;7.60;99.90;;;;;;5067805;28;20095;-78
2022/12/22 05:27:48;;;;;;;1.52;1.20;;;7.60;99.90;;;;;;5049604;28;20097;-78
2022/12/22 05:30:15;;;;;;;2.03;1.30;;;7.50;99.90;;;;;;5066544;28;20383;-78
2022/12/22 05:32:42;;;;;;;1.70;1.10;;;7.50;99.90;;;;;;5033334;28;20048;-79
2022/12/22 05:35:09;;;;;;;1.58;1.27;;;7.50;99.90;;;;;;5049307;28;20131;-78
2022/12/22 05:37:35;;;;;;;1.70;1.25;;;7.60;99.90;;;;;;5065995;28;20485;-77
2022/12/22 05:40:02;;;;;;;2.05;1.63;;;7.60;99.90;;;;;;5049751;28;20049;-77
2022/12/22 05:42:35;;;;;;;2.45;1.60;;;7.50;99.90;;;;;;5066123;28;20082;-78
2022/12/22 05:45:04;;;;;;;2.20;1.45;;;7.60;99.90;;;;;;5050080;28;20072;-78
2022/12/22 05:47:31;;;;;;;1.73;1.30;;;7.50;99.90;;;;;;5049608;28;20082;-77
2022/12/22 05:49:57;;;;;;;1.95;1.30;;;7.50;99.90;;;;;;5041651;28;20132;-78
2022/12/22 05:52:24;;;;;;;1.70;1.13;;;7.50;99.90;;;;;;5044427;28;20095;-77
2022/12/22 05:54:51;;;;;;;1.48;1.13;;;7.50;99.90;;;;;;5044068;28;20106;-79
2022/12/22 05:57:18;;;;;;;2.05;1.40;;;7.50;99.90;;;;;;5043988;28;20484;-78
2022/12/22 05:59:45;;;;;;;1.10;1.00;;;7.50;99.90;;;;;;5056203;28;20407;-78
2022/12/22 06:02:11;;;;;;;1.85;0.95;;;7.40;99.90;;;;;;5059804;28;20040;-79
2022/12/22 06:04:38;;;;;;;1.00;0.85;;;7.40;99.90;;;;;;5055848;28;20523;-78
2022/12/22 06:07:05;;;;;;;1.25;0.88;;;7.40;99.90;;;;;;5062305;28;20058;-78
2022/12/22 06:09:32;;;;;;;1.38;1.05;;;7.40;99.90;;;;;;5059762;28;20064;-79
2022/12/22 06:11:58;;;;;;;1.52;1.00;;;7.30;99.90;;;;;;5064360;28;20123;-79
2022/12/22 06:14:25;;;;;;;1.63;1.05;;;7.20;99.90;;;;;;5059440;28;20040;-77
2022/12/22 06:16:52;;;;;;;1.92;1.20;;;7.20;99.90;;;;;;5062773;28;20064;-77
2022/12/22 06:19:18;;;;;;;1.73;1.17;;;7.20;99.90;;;;;;5064913;28;20540;-78
2022/12/22 06:21:45;;;;;;;1.77;1.27;;;7.10;99.90;;;;;;5045423;28;20056;-76
2022/12/22 06:24:12;;;;;;;2.05;1.38;;;7.10;99.90;;;;;;5044231;28;20493;-77
2022/12/22 06:26:39;;;;;;;1.10;1.00;;;7.00;99.90;;;;;;5045399;28;20135;-78
2022/12/22 06:29:05;;;;;;;1.55;1.05;;;7.00;99.90;;;;;;5044282;28;20080;-77
2022/12/22 06:31:32;;;;;;;1.65;1.27;;;7.00;99.90;;;;;;5045124;28;20153;-77
2022/12/22 06:33:59;;;;;;;1.60;1.10;;;6.90;99.90;;;;;;5044017;28;20041;-80
2022/12/22 06:36:26;;;;;;;1.30;0.90;;;6.80;99.90;;;;;;5049906;28;20070;-78
2022/12/22 06:38:53;;;;;;;1.10;1.00;;;6.80;99.90;;;;;;5059826;28;20132;-77
2022/12/22 06:43:07;;;;;;;1.02;0.63;;;6.70;99.90;;;;;;5062365;28;20059;-78
2022/12/22 06:44:06;;;;;;;1.08;0.90;;;6.60;99.90;;;;;;5061053;28;20051;-77
2022/12/22 06:46:33;;;;;;;0.90;0.70;;;6.60;99.90;;;;;;5060547;28;20484;-78
2022/12/22 06:49:00;;;;;;;1.00;0.70;;;6.50;99.90;;;;;;5058557;28;20427;-78
2022/12/22 06:51:26;;;;;;;0.93;0.70;;;6.40;99.90;;;;;;5044909;28;20079;-78
2022/12/22 06:53:53;;;;;;;1.10;0.60;;;6.30;99.90;;;;;;5059722;28;20044;-78
2022/12/22 06:56:20;;;;;;;1.10;0.90;;;6.20;99.90;;;;;;5057378;28;20515;-79
2022/12/22 06:58:47;;;;;;;1.70;1.00;;;6.20;99.90;;;;;;5038631;28;20135;-78
2022/12/22 07:01:13;;;;;;;2.03;1.35;;;6.10;99.90;;;;;;5035955;28;20040;-79
2022/12/22 07:03:40;;;;;;;1.58;0.90;;;6.10;99.90;;;;;;5057464;28;20529;-78
2022/12/22 07:06:07;;;;;;;1.65;0.93;;;6.00;99.90;;;;;;5038143;28;20407;-78
2022/12/22 07:08:34;;;;;;;0.95;0.70;;;5.90;99.90;;;;;;5055313;28;20067;-77
2022/12/22 07:11:01;;;;;;;0.70;0.70;;;5.90;99.90;;;;;;5061885;28;20064;-78
2022/12/22 07:13:32;;;;;;;1.30;0.80;;;5.90;99.90;;;;;;5054090;28;20135;-77
2022/12/22 07:16:00;;;;;;;0.93;0.60;;;5.80;99.90;;;;;;5036990;28;20052;-78
2022/12/22 07:18:32;;;;;;;0.82;0.50;;;5.80;99.90;;;;;;5048341;28;20200;-77
2022/12/22 07:21:03;;;;;;;1.00;0.70;;;5.80;99.90;;;;;;5019624;28;20379;-78
2022/12/22 07:23:30;;;;;;;0.50;0.50;;;5.80;99.90;;;;;;5045736;28;20068;-77
2022/12/22 07:25:57;;;;;;;1.00;0.60;;;5.80;99.90;;;;;;5048047;28;20160;-77
2022/12/22 07:28:23;;;;;;;0.68;0.60;;;5.80;99.90;;;;;;5050994;28;20156;-78
2022/12/22 07:30:50;;;;;;;0.55;0.55;;;5.80;99.90;;;;;;5034908;28;20205;-78
2022/12/22 07:33:17;;;;;;;0.75;0.60;;;5.80;99.90;;;;;;5052541;28;20815;-78
2022/12/22 07:35:44;;;;;;;1.25;0.70;;;5.80;99.90;;;;;;5042751;28;20060;-77
2022/12/22 07:38:11;;;;;;;0.93;0.75;;;5.70;99.90;;;;;;5016623;28;20041;-78
2022/12/22 07:40:38;;;;;;;0.93;0.60;;;5.80;99.90;;;;;;5055794;28;20052;-77
2022/12/22 07:43:08;;;;;;;0.70;0.60;;;5.90;99.90;;;;;;5056511;28;20049;-78
2022/12/22 07:45:35;;;;;;;1.00;0.63;;;5.90;99.90;;;;;;5054559;28;20716;-80
2022/12/22 07:50:23;;;;;;;0.80;0.60;;;6.00;99.90;;;;;;5055727;28;20200;-78
2022/12/22 07:50:49;;;;;;;0.73;0.52;;;6.00;99.90;;;;;;5055864;28;20068;-77
2022/12/22 07:53:16;;;;;;;1.20;0.63;;;6.10;99.90;;;;;;5057891;28;20049;-83
2022/12/22 07:55:43;;;;;;;0.68;0.63;;;6.20;99.90;;;;;;5037472;28;20060;-80
2022/12/22 07:58:09;;;;;;;1.15;0.80;;;6.30;99.90;;;;;;5043313;28;20044;-79
2022/12/22 08:00:36;;;;;;;1.77;0.95;;;6.30;99.90;;;;;;5055843;28;20049;-79
2022/12/22 08:03:03;;;;;;;1.33;0.95;;;6.40;99.90;;;;;;5052928;28;20248;-80
2022/12/22 08:05:30;;;;;;;1.63;0.95;;;6.40;99.90;;;;;;5031150;28;20098;-80
2022/12/22 08:07:57;;;;;;;1.30;0.85;;;6.40;99.90;;;;;;5040001;28;20040;-80
2022/12/22 08:10:24;;;;;;;1.88;0.90;;;6.50;99.90;;;;;;5050541;28;20045;-80
2022/12/22 08:12:50;;;;;;;0.98;0.70;;;6.50;99.90;;;;;;5046262;28;20350;-80
2022/12/22 08:15:17;;;;;;;0.90;0.70;;;6.60;99.90;;;;;;5070357;28;20444;-80
2022/12/22 08:17:44;;;;;;;0.95;0.60;;;6.60;99.90;;;;;;5052096;28;20131;-80
2022/12/22 08:20:11;;;;;;;0.98;0.60;;;6.60;99.90;;;;;;5038217;28;20045;-80
2022/12/22 08:22:38;;;;;;;0.93;0.60;;;6.80;99.90;;;;;;5056152;28;20121;-80
2022/12/22 08:25:05;;;;;;;1.27;0.95;;;6.80;99.90;;;;;;5020344;28;20052;-80
2022/12/22 08:27:38;;;;;;;0.68;0.57;;;6.90;99.90;;;;;;5030608;28;20060;-79
2022/12/22 08:30:06;;;;;;;;;;;7.00;99.90;;;;;;5042201;28;20040;-80
2022/12/22 08:32:33;;;;;;;1.05;0.68;;;7.10;99.90;;;;;;5059833;28;19920;-81
2022/12/22 08:35:01;;;;;;;0.98;0.70;;;7.20;99.90;;;;;;5025625;28;20123;-81
2022/12/22 08:37:28;;;;;;;0.98;0.75;;;7.30;99.90;;;;;;5044560;28;20125;-81
2022/12/22 08:39:56;;;;;;;1.02;0.60;;;7.40;99.90;;;;;;5043685;28;20404;-81
2022/12/22 08:42:23;;;;;;;0.77;0.60;;;7.40;99.90;;;;;;5027852;28;20052;-81
2022/12/22 08:44:52;;;;;;;0.73;0.52;;;7.50;99.90;;;;;;5025703;28;20048;-81
2022/12/22 08:47:20;;;;;;;0.90;0.70;;;7.50;99.90;;;;;;5044256;28;20398;-80
2022/12/22 08:49:48;;;;;;;1.40;0.90;;;7.60;99.90;;;;;;5059494;28;20492;-80
2022/12/22 08:52:15;;;;;;;0.60;0.50;;;7.70;99.90;;;;;;5043839;28;20052;-81
2022/12/22 08:54:45;;;;;;;0.90;0.70;;;7.80;99.90;;;;;;5027608;28;20076;-81
2022/12/22 08:57:12;;;;;;;0.90;0.70;;;7.90;99.90;;;;;;5059455;28;20460;-79
2022/12/22 08:59:39;;;;;;;0.60;0.50;;;8.10;99.90;;;;;;5059003;28;20052;-80
2022/12/22 09:02:06;;;;;;;0.60;0.60;;;8.20;99.90;;;;;;5026488;28;20164;-80
2022/12/22 09:04:33;;;;;;;1.45;1.10;;;8.20;99.90;;;;;;5043225;28;20057;-79
2022/12/22 09:07:01;;;;;;;0.77;0.75;;;8.30;99.90;;;;;;5043085;28;20048;-80
2022/12/22 09:09:31;;;;;;;0.77;0.68;;;8.40;99.90;;;;;;5059379;28;20080;-80
2022/12/22 09:11:58;;;;;;;1.13;0.82;;;8.50;99.90;;;;;;5026553;28;20167;-80
2022/12/22 09:14:25;;;;;;;1.15;0.90;;;8.60;99.90;;;;;;5042517;28;20268;-80
2022/12/22 09:16:51;;;;;;;1.30;1.05;;;8.60;99.90;;;;;;5025896;28;20040;-80
2022/12/22 09:19:18;;;;;;;0.70;0.70;;;8.60;99.90;;;;;;5036282;28;20127;-80
2022/12/22 09:21:45;;;;;;;1.30;1.00;;;8.70;99.90;;;;;;5058361;28;20045;-80
2022/12/22 09:24:12;;;;;;;1.08;0.80;;;8.80;99.90;;;;;;5058705;28;20499;-80
2022/12/22 09:26:39;;;;;;;1.30;0.90;;;8.80;99.90;;;;;;5042095;28;20127;-80
2022/12/22 09:29:06;;;;;;;1.52;1.17;;;8.90;99.90;;;;;;5039332;28;20049;-81
2022/12/22 09:31:33;;;;;;;1.90;1.25;;;8.90;99.90;;;;;;5058959;28;20059;-80
2022/12/22 09:34:00;;;;;;;0.63;0.60;;;8.90;99.90;;;;;;5058529;28;20102;-80
2022/12/22 09:36:28;;;;;;;1.00;0.90;;;9.00;99.90;;;;;;5060500;28;20088;-81
2022/12/22 09:38:55;;;;;;;0.88;0.75;;;9.10;99.90;;;;;;5059296;28;20310;-80
2022/12/22 09:41:27;;;;;;;1.08;0.90;;;9.10;99.90;;;;;;5042920;28;20753;-80
2022/12/22 09:43:55;;;;;;;0.57;0.57;;;9.10;99.90;;;;;;5041689;28;20116;-80
2022/12/22 09:46:24;;;;;;;1.20;1.00;;;9.10;99.90;;;;;;5026451;28;20052;-80
2022/12/22 09:48:51;;;;;;;1.10;0.90;;;9.20;99.90;;;;;;5042930;28;20048;-80
2022/12/22 09:51:20;;;;;;;1.02;0.80;;;9.20;99.90;;;;;;5026707;28;20060;-81
2022/12/22 09:53:59;;;;;;;1.20;0.80;;;9.30;99.90;;;;;;5043891;28;20063;-80
2022/12/22 09:56:27;;;;;;;1.55;0.95;;;9.30;99.90;;;;;;5025473;28;20550;-79
2022/12/22 09:58:53;;;;;;;1.98;1.10;;;9.40;99.90;;;;;;5042476;28;20048;-80
2022/12/22 10:01:38;;;;;;;0.82;0.68;;;9.40;99.90;;;;;;5026366;28;20400;-80
2022/12/22 10:04:27;;;;;;;0.98;0.80;;;9.50;99.90;;;;;;5043599;28;20680;-80
2022/12/22 10:07:21;;;;;;;0.68;0.60;;;9.50;99.90;;;;;;5058583;28;20215;-80
2022/12/22 10:09:47;;;;;;;1.60;0.80;;;9.60;99.90;;;;;;5066544;28;20044;-79
2022/12/22 10:12:22;;;;;;;1.08;0.90;;;9.70;99.90;;;;;;5056109;28;20052;-80
2022/12/22 10:14:50;;;;;;;1.60;1.10;;;9.70;99.90;;;;;;5057423;28;20435;-80
2022/12/22 10:17:31;;;;;;;1.58;1.08;;;9.80;99.90;;;;;;5058102;28;20483;-79
2022/12/22 10:20:20;;;;;;;0.98;0.75;;;9.90;99.90;;;;;;5041121;28;20524;-79
2022/12/22 10:22:54;;;;;;;1.10;0.73;;;9.90;99.90;;;;;;5043081;28;20052;-79
2022/12/22 10:25:33;;;;;;;0.70;0.70;;;9.90;99.90;;;;;;5027312;28;20124;-79
2022/12/22 10:28:21;;;;;;;1.13;0.82;;;9.90;99.90;;;;;;5043942;28;20195;-79
2022/12/22 10:30:48;;;;;;;0.73;0.68;;;10.00;99.90;;;;;;5040934;28;20053;-78
2022/12/22 10:33:17;;;;;;;0.88;0.70;;;10.00;99.90;;;;;;5041629;28;20060;-79
2022/12/22 10:35:50;;;;;;;1.15;0.73;;;10.10;99.90;;;;;;5026653;28;20110;-77
2022/12/22 10:38:31;;;;;;;1.33;1.00;;;10.20;99.90;;;;;;5042362;28;20167;-80
2022/12/22 10:41:21;;;;;;;0.77;0.63;;;10.20;99.90;;;;;;5022162;28;20064;-79
2022/12/22 10:43:53;;;;;;;0.80;0.70;;;10.20;99.90;;;;;;5047413;28;20052;-79
2022/12/22 10:46:33;;;;;;;1.00;0.68;;;10.30;99.90;;;;;;5041833;28;20056;-80
2022/12/22 10:49:27;;;;;;;1.50;0.90;;;10.30;99.90;;;;;;5058265;28;20091;-80
2022/12/22 10:51:56;;;;;;;1.08;0.80;;;10.40;99.90;;;;;;5057601;28;20136;-80
2022/12/22 10:54:28;;;;;;;2.50;0.80;;;10.50;99.90;;;;;;5041945;28;20049;-80
2022/12/22 10:57:19;;;;;;;1.30;0.85;;;10.60;99.90;;;;;;5041892;28;20052;-80
2022/12/22 10:59:50;;;;;;;1.23;0.68;;;10.70;99.90;;;;;;5040274;28;20051;-80
2022/12/22 11:02:20;;;;;;;1.88;0.90;;;10.70;99.90;;;;;;5039891;28;20803;-80
2022/12/22 11:04:48;;;;;;;2.05;0.88;;;10.80;99.90;;;;;;5057534;28;20456;-80
2022/12/22 11:07:14;;;;;;;2.20;0.88;;;10.90;99.90;;;;;;5038216;28;20049;-80
2022/12/22 11:09:42;;;;;;;2.38;1.30;;;11.00;99.90;;;;;;5039438;28;20048;-80
2022/12/22 11:12:30;;;;;;;1.95;0.88;;;11.00;99.90;;;;;;5053814;28;20048;-79
2022/12/22 11:15:31;;;;;;;1.33;0.68;;;11.10;99.90;;;;;;5056200;28;20059;-80
2022/12/22 11:18:18;;;;;;;3.63;1.30;;;11.20;99.90;;;;;;5051726;28;20040;-80
2022/12/22 11:21:07;;;;;;;4.13;1.70;;;11.30;99.90;;;;;;5023725;28;20055;-82
2022/12/22 11:23:53;;;;;;;3.13;1.60;;;11.30;99.90;;;;;;5036932;28;20052;-83
2022/12/22 11:26:40;;;;;;;2.15;1.10;;;11.40;99.90;;;;;;5056062;28;20376;-83
2022/12/22 11:29:24;;;;;;;1.02;0.60;;;11.40;99.90;;;;;;5057228;28;20504;-76
2022/12/22 11:32:06;;;;;;;1.33;0.80;;;11.50;99.90;;;;;;5040718;28;20361;-78
2022/12/22 11:35:14;;;;;;;1.92;0.80;;;11.50;99.90;;;;;;5056301;28;20428;-78
2022/12/22 11:37:52;;;;;;;2.88;1.40;;;11.50;99.90;;;;;;5055932;28;20056;-78
2022/12/22 11:40:31;;;;;;;2.55;1.38;;;11.60;99.90;;;;;;5056654;28;20045;-78
2022/12/22 11:43:08;;;;;;;3.15;1.30;;;11.60;99.90;;;;;;5054823;28;20079;-78
2022/12/22 11:46:12;;;;;;;3.65;1.95;;;11.60;99.90;;;;;;5057863;28;20066;-78
2022/12/22 11:48:48;;;;;;;2.70;1.33;;;11.60;99.90;;;;;;5055616;28;20147;-77
2022/12/22 11:51:24;;;;;;;2.97;1.50;;;11.60;99.90;;;;;;5057334;28;20089;-78
2022/12/22 11:54:21;;;;;;;3.08;1.27;;;11.60;99.90;;;;;;5055369;28;20133;-78
2022/12/22 11:56:55;;;;;;;1.93;0.90;;;11.60;99.90;;;;;;5055075;28;20483;-78
2022/12/22 11:59:40;;;;;;;2.40;1.05;;;11.60;99.90;;;;;;5038239;28;20210;-78
2022/12/22 12:02:27;;;;;;;1.75;1.00;;;11.70;99.90;;;;;;5056810;28;20088;-78
2022/12/22 12:05:25;;;;;;;1.65;0.85;;;11.70;99.90;;;;;;5041580;28;20535;-79
2022/12/22 12:08:17;;;;;;;1.52;0.70;;;11.80;99.90;;;;;;5056526;28;20441;-78
2022/12/22 12:10:50;;;;;;;0.77;0.63;;;11.80;99.90;;;;;;5058423;28;20483;-78
2022/12/22 12:13:26;;;;;;;2.00;0.80;;;11.90;99.90;;;;;;5039343;28;20346;-78
2022/12/22 12:16:24;;;;;;;1.77;0.90;;;11.90;99.90;;;;;;5042045;28;20527;-78
2022/12/22 12:18:55;;;;;;;1.88;0.88;;;11.90;99.90;;;;;;5036674;28;20053;-78
2022/12/22 12:21:28;;;;;;;4.15;1.58;;;11.90;99.90;;;;;;5056155;28;20106;-78
2022/12/22 12:24:26;;;;;;;1.38;0.70;;;11.90;99.90;;;;;;5040189;28;20041;-78
2022/12/22 12:26:56;;;;;;;1.55;0.80;;;11.90;99.90;;;;;;5058127;28;20131;-78
2022/12/22 12:29:48;;;;;;;2.95;0.95;;;12.00;99.90;;;;;;5056271;28;20255;-78
2022/12/22 12:32:39;;;;;;;1.88;0.90;;;12.00;99.90;;;;;;5042598;28;20044;-78
2022/12/22 12:35:21;;;;;;;1.63;0.60;;;12.00;99.90;;;;;;5039007;28;20053;-78
2022/12/22 12:37:49;;;;;;;1.20;0.75;;;12.00;99.90;;;;;;5025203;28;20164;-77
2022/12/22 12:40:41;;;;;;;2.13;0.70;;;12.10;99.90;;;;;;5040653;28;20044;-77
2022/12/22 12:43:09;;;;;;;1.23;0.60;;;12.00;99.90;;;;;;5040744;28;20415;-78
2022/12/22 12:45:44;;;;;;;2.45;0.85;;;12.10;99.90;;;;;;5026242;28;20109;-80
2022/12/22 12:48:20;;;;;;;1.35;0.68;;;12.10;99.90;;;;;;5023488;28;20299;-80
2022/12/22 12:50:53;;;;;;;1.98;0.90;;;12.20;99.90;;;;;;5056779;28;20626;-79
2022/12/22 12:53:28;;;;;;;0.80;0.50;;;12.20;99.90;;;;;;5040834;28;20567;-79
2022/12/22 12:56:00;;;;;;;2.17;0.98;;;12.30;99.90;;;;;;5027149;28;20447;-80
2022/12/22 12:58:36;;;;;;;1.63;0.75;;;12.30;99.90;;;;;;5043155;28;20496;-80
2022/12/22 13:01:19;;;;;;;1.63;0.85;;;12.30;99.90;;;;;;5060496;28;20492;-80
2022/12/22 13:03:47;;;;;;;1.85;0.88;;;12.30;99.90;;;;;;5059746;28;20040;-79
2022/12/22 13:06:46;;;;;;;1.80;0.90;;;12.20;99.90;;;;;;5032260;28;20443;-80
2022/12/22 13:09:23;;;;;;;2.60;1.23;;;12.20;99.90;;;;;;5061275;28;20059;-80
2022/12/22 13:12:47;;;;;;;4.57;1.63;;;12.20;99.90;;;;;;5032691;28;20052;-79
2022/12/22 13:15:28;;;;;;;3.47;1.52;;;12.10;99.90;;;;;;5043545;28;20171;-77
2022/12/22 13:17:55;;;;;;;3.50;1.70;;;12.10;99.90;;;;;;5058889;28;20109;-79
2022/12/22 13:20:31;;;;;;;3.47;1.10;;;12.00;99.90;;;;;;5041126;28;20048;-80
2022/12/22 13:22:59;;;;;;;3.65;2.17;;;12.00;99.90;;;;;;5042673;28;20151;-79
2022/12/22 13:25:41;;;;;;;4.60;1.58;;;12.10;99.90;;;;;;5025802;28;20036;-80
2022/12/22 13:28:13;;;;;;;3.28;1.30;;;12.10;99.90;;;;;;5036646;28;20322;-80
2022/12/22 13:30:44;;;;;;;2.92;1.73;;;12.00;99.90;;;;;;5041671;28;20049;-80
2022/12/22 13:33:12;;;;;;;2.83;1.50;;;12.10;99.90;;;;;;5022154;28;20205;-80
2022/12/22 13:35:39;;;;;;;4.55;1.52;;;12.10;99.90;;;;;;5036266;28;20562;-80
2022/12/22 13:38:30;;;;;;;7.15;1.65;;;12.10;99.90;;;;;;5052011;28;20332;-79
2022/12/22 13:41:18;;;;;;;3.72;1.42;;;12.00;99.90;;;;;;5020650;28;20037;-79
2022/12/22 13:43:54;;;;;;;2.75;1.30;;;12.00;99.90;;;;;;5035956;28;20437;-80
2022/12/22 13:46:21;;;;;;;3.58;1.48;;;12.00;99.90;;;;;;5060969;28;20136;-79
2022/12/22 13:48:48;;;;;;;3.05;1.52;;;11.90;99.90;;;;;;5027002;28;20048;-80
2022/12/22 13:51:24;;;;;;;1.98;0.90;;;11.90;99.90;;;;;;5058615;28;20135;-80
2022/12/22 13:53:52;;;;;;;1.55;1.25;;;11.80;99.90;;;;;;5033238;28;20060;-80
2022/12/22 13:56:37;;;;;;;2.03;1.15;;;11.80;99.90;;;;;;5049354;28;20064;-80
2022/12/22 13:59:04;;;;;;;2.05;1.02;;;11.80;99.90;;;;;;5046021;28;20059;-80
2022/12/22 14:01:31;;;;;;;1.42;0.70;;;11.80;99.90;;;;;;5054397;28;20048;-80
2022/12/22 14:04:02;;;;;;;1.17;0.82;;;11.70;99.90;;;;;;5041686;28;20507;-79
2022/12/22 14:06:36;;;;;;;1.15;0.65;;;11.80;99.90;;;;;;5038642;28;20409;-80
2022/12/22 14:09:32;;;;;;;1.25;0.70;;;11.80;99.90;;;;;;5047208;28;20394;-79
2022/12/22 14:11:59;;;;;;;0.95;0.63;;;11.80;99.90;;;;;;5048287;28;20321;-80
2022/12/22 14:14:27;;;;;;;1.83;0.80;;;11.80;99.90;;;;;;5053339;28;20403;-80
2022/12/22 14:16:56;;;;;;;1.50;0.65;;;11.80;99.90;;;;;;5053311;28;20216;-79
2022/12/22 14:19:23;;;;;;;4.38;1.17;;;11.80;99.90;;;;;;5058141;28;20163;-80
2022/12/22 14:22:07;;;;;;;2.17;1.02;;;11.70;99.90;;;;;;5055762;28;20060;-78
2022/12/22 14:24:42;;;;;;;1.10;0.43;;;11.70;99.90;;;;;;5055953;28;20052;-79
2022/12/22 14:27:42;;;;;;;2.67;0.80;;;11.70;99.90;;;;;;5038284;28;20120;-80
2022/12/22 14:30:18;;;;;;;2.55;0.60;;;11.70;99.90;;;;;;5054220;28;20119;-79
2022/12/22 14:32:49;;;;;;;1.60;0.95;;;11.70;99.90;;;;;;5036135;28;20476;-80
2022/12/22 14:35:21;;;;;;;1.20;0.60;;;11.70;99.90;;;;;;5025417;28;20189;-80
2022/12/22 14:37:54;;;;;;;1.80;0.90;;;11.70;99.90;;;;;;5053622;28;20472;-80
2022/12/22 14:40:31;;;;;;;1.38;0.75;;;11.70;99.90;;;;;;5042069;28;20132;-80
2022/12/22 14:42:59;;;;;;;2.25;0.98;;;11.70;99.90;;;;;;5056074;28;20050;-80
2022/12/22 14:45:25;;;;;;;1.77;0.75;;;11.70;99.90;;;;;;5041445;28;20060;-80
2022/12/22 14:47:53;;;;;;;1.52;0.70;;;11.70;99.90;;;;;;5040745;28;20725;-81
2022/12/22 14:50:24;;;;;;;1.55;0.60;;;11.70;99.90;;;;;;5028901;28;20056;-81
2022/12/22 14:52:58;;;;;;;1.55;0.65;;;11.70;99.90;;;;;;5039082;28;20102;-81
2022/12/22 14:55:36;;;;;;;1.05;0.60;;;11.70;99.90;;;;;;5016518;28;20067;-81
2022/12/22 14:58:11;;;;;;;1.70;0.95;;;11.70;99.90;;;;;;5049790;28;20515;-81
2022/12/22 15:00:39;;;;;;;2.38;0.95;;;11.70;99.90;;;;;;5064148;28;20507;-81
2022/12/22 15:03:26;;;;;;;0.70;0.50;;;11.80;99.90;;;;;;5050127;28;20334;-80
2022/12/22 15:05:53;;;;;;;2.13;0.88;;;11.80;99.90;;;;;;5053616;28;20051;-80
2022/12/22 15:08:39;;;;;;;2.15;0.80;;;11.80;99.90;;;;;;5040473;28;20044;-80
2022/12/22 15:11:13;;;;;;;1.60;0.90;;;11.80;99.90;;;;;;5039699;28;20147;-80
2022/12/22 15:13:41;;;;;;;1.13;0.80;;;11.70;99.90;;;;;;5030470;28;20156;-79
2022/12/22 15:16:13;;;;;;;0.90;0.70;;;11.80;99.90;;;;;;5040230;28;20053;-79
2022/12/22 15:18:40;;;;;;;1.13;0.65;;;11.80;99.90;;;;;;5038230;28;20809;-80
2022/12/22 15:21:08;;;;;;;1.30;0.85;;;11.80;99.90;;;;;;5039696;28;20045;-81
2022/12/22 15:23:35;;;;;;;1.05;0.57;;;11.80;99.90;;;;;;5036050;28;20524;-80
2022/12/22 15:26:01;;;;;;;2.33;0.90;;;11.70;99.90;;;;;;5040277;28;20047;-80
2022/12/22 15:28:29;;;;;;;3.55;1.02;;;11.70;99.90;;;;;;5054366;28;20071;-81
2022/12/22 15:30:57;;;;;;;1.33;0.90;;;11.70;99.90;;;;;;5053738;28;20357;-81
2022/12/22 15:33:24;;;;;;;1.38;1.00;;;11.60;99.90;;;;;;5054133;28;20053;-80
2022/12/22 15:35:51;;;;;;;3.00;1.05;;;11.60;99.90;;;;;;5039169;28;20040;-78
2022/12/22 15:38:22;;;;;;;2.63;1.10;;;11.50;99.90;;;;;;5024464;28;20143;-79
2022/12/22 15:40:48;;;;;;;3.15;1.30;;;11.50;99.90;;;;;;5039767;28;20051;-79
2022/12/22 15:43:15;;;;;;;1.50;1.00;;;11.50;99.90;;;;;;5049943;28;20048;-79
2022/12/22 15:46:03;;;;;;;1.67;1.00;;;11.50;99.90;;;;;;5024408;28;20075;-79
2022/12/22 15:48:31;;;;;;;1.60;1.00;;;11.60;99.90;;;;;;5048649;28;20543;-79
2022/12/22 15:50:59;;;;;;;1.67;1.10;;;11.60;99.90;;;;;;5032705;28;20064;-80
2022/12/22 15:53:27;;;;;;;1.67;1.05;;;11.60;99.90;;;;;;5050941;28;20040;-80
2022/12/22 15:55:57;;;;;;;1.88;0.98;;;11.60;99.90;;;;;;5051417;28;20059;-80
2022/12/22 15:58:26;;;;;;;1.45;0.80;;;11.50;99.90;;;;;;5037118;28;20055;-80
2022/12/22 16:00:53;;;;;;;1.90;0.68;;;11.60;99.90;;;;;;5028627;28;20159;-80
2022/12/22 16:03:20;;;;;;;1.25;0.60;;;11.60;99.90;;;;;;5049085;28;20053;-80
2022/12/22 16:05:47;;;;;;;1.52;0.85;;;11.60;99.90;;;;;;5038218;28;20470;-80
2022/12/22 16:08:16;;;;;;;1.15;0.70;;;11.60;99.90;;;;;;5017734;28;20132;-81
2022/12/22 16:10:44;;;;;;;1.40;0.63;;;11.60;99.90;;;;;;5064223;28;20060;-80
2022/12/22 16:13:11;;;;;;;1.67;0.80;;;11.50;99.90;;;;;;5041411;28;20052;-80
2022/12/22 16:15:38;;;;;;;2.03;0.73;;;11.50;99.90;;;;;;5045487;28;20052;-80
2022/12/22 16:18:05;;;;;;;1.67;0.90;;;11.50;99.90;;;;;;5039784;28;20071;-80
2022/12/22 16:20:37;;;;;;;1.40;0.82;;;11.50;99.90;;;;;;5038662;28;20056;-80
2022/12/22 16:23:04;;;;;;;1.25;0.63;;;11.50;99.90;;;;;;5044555;28;20048;-80
2022/12/22 16:25:33;;;;;;;2.05;0.82;;;11.50;99.90;;;;;;4998120;28;20128;-80
2022/12/22 16:28:00;;;;;;;1.65;0.80;;;11.50;99.90;;;;;;4984426;28;20056;-80
2022/12/22 16:30:29;;;;;;;1.85;1.08;;;11.50;99.90;;;;;;5041314;28;20068;-80
2022/12/22 16:32:56;;;;;;;1.63;0.70;;;11.50;99.90;;;;;;5023201;28;20131;-80
2022/12/22 16:35:27;;;;;;;1.30;0.70;;;11.50;99.90;;;;;;5054215;28;20151;-81
2022/12/22 16:37:55;;;;;;;1.92;1.10;;;11.50;99.90;;;;;;5049911;28;20059;-82
2022/12/22 16:40:22;;;;;;;2.50;0.93;;;11.50;99.90;;;;;;5058187;28;20079;-81
2022/12/22 16:42:58;;;;;;;3.33;1.00;;;11.50;99.90;;;;;;5039791;28;20048;-81
2022/12/22 16:45:43;;;;;;;1.90;0.90;;;11.50;99.90;;;;;;5039993;28;20070;-82
2022/12/22 16:48:23;;;;;;;2.95;1.17;;;11.50;99.90;;;;;;5051516;28;20048;-82